OUL weather

Oulu Airport
Oulu / Oulunsalo, Oulu, Finland

Public forecast

Using degrees Celsius for public forecast. Weather courtesy of forecast.io.

Current aviation weather report (METAR) for Oulu Airport

Retrieved 2019/10/15 21:20 UTC (0 seconds ago):

EFOU 152120Z AUTO 15006KT 9999 VCSH OVC009 02/02 Q1019

Aviation forecast (TAF) for Oulu Airport

Retrieved 2019/10/15 21:42 UTC (0 seconds ago):

TAF EFOU 152025Z 1521/1621 16005KT 9999 OVC008 TEMPO 1521/1524 6000 -SHRA BKN010 FEW020CB TEMPO 1600/1609 6000 -SHRASN BKN012 BECMG 1609/1611 BKN015